createdAt,value
2018-07-15T00:00:52.373Z,1011.65
2018-07-15T00:01:52.380Z,1011.62
2018-07-15T00:02:52.343Z,1011.64
2018-07-15T00:03:52.332Z,1011.65
2018-07-15T00:04:52.322Z,1011.64
2018-07-15T00:05:52.309Z,1011.62
2018-07-15T00:06:52.321Z,1011.59
2018-07-15T00:07:52.288Z,1011.58
2018-07-15T00:08:52.277Z,1011.63
2018-07-15T00:09:52.268Z,1011.61
2018-07-15T00:10:52.257Z,1011.59
2018-07-15T00:11:52.268Z,1011.55
2018-07-15T00:12:52.233Z,1011.52
2018-07-15T00:13:52.222Z,1011.54
2018-07-15T00:14:52.213Z,1011.53
2018-07-15T00:15:52.203Z,1011.57
2018-07-15T00:16:52.213Z,1011.55
2018-07-15T00:17:52.179Z,1011.53
2018-07-15T00:18:52.169Z,1011.54
2018-07-15T00:19:52.156Z,1011.56
2018-07-15T00:20:52.187Z,1011.56
2018-07-15T00:21:52.159Z,1011.57
2018-07-15T00:22:52.127Z,1011.51
2018-07-15T00:23:52.113Z,1011.56
2018-07-15T00:24:52.102Z,1011.54
2018-07-15T00:25:52.091Z,1011.50
2018-07-15T00:26:52.103Z,1011.47
2018-07-15T00:27:52.070Z,1011.57
2018-07-15T00:28:52.058Z,1011.52
2018-07-15T00:29:52.047Z,1011.55
2018-07-15T00:30:52.036Z,1011.49
2018-07-15T00:31:52.049Z,1011.55
2018-07-15T00:32:52.015Z,1011.56
2018-07-15T00:33:52.002Z,1011.52
2018-07-15T00:34:51.992Z,1011.53
2018-07-15T00:35:51.982Z,1011.54
2018-07-15T00:36:51.994Z,1011.53
2018-07-15T00:37:51.958Z,1011.50
2018-07-15T00:38:51.947Z,1011.51
2018-07-15T00:39:51.938Z,1011.45
2018-07-15T00:40:51.927Z,1011.51
2018-07-15T00:41:51.944Z,1011.52
2018-07-15T00:42:51.907Z,1011.47
2018-07-15T00:43:51.893Z,1011.50
2018-07-15T00:44:51.882Z,1011.46
2018-07-15T00:45:51.873Z,1011.50
2018-07-15T00:46:51.884Z,1011.49
2018-07-15T00:47:51.905Z,1011.50
2018-07-15T00:48:51.838Z,1011.48
2018-07-15T00:49:51.828Z,1011.48
2018-07-15T00:50:51.819Z,1011.46
2018-07-15T00:51:51.829Z,1011.48
2018-07-15T00:52:51.795Z,1011.46
2018-07-15T00:53:51.784Z,1011.48
2018-07-15T00:54:51.774Z,1011.49
2018-07-15T00:55:51.762Z,1011.50
2018-07-15T00:56:51.775Z,1011.54
2018-07-15T00:57:51.740Z,1011.52
2018-07-15T00:58:51.729Z,1011.52
2018-07-15T00:59:51.718Z,1011.51
2018-07-15T01:00:51.707Z,1011.53
2018-07-15T01:01:51.723Z,1011.49
2018-07-15T01:02:51.686Z,1011.52
2018-07-15T01:03:51.676Z,1011.53
2018-07-15T01:04:51.663Z,1011.52
2018-07-15T01:05:51.653Z,1011.55
2018-07-15T01:06:51.644Z,1011.51
2018-07-15T01:07:51.655Z,1011.51
2018-07-15T01:08:51.619Z,1011.55
2018-07-15T01:09:51.607Z,1011.54
2018-07-15T01:10:51.597Z,1011.54
2018-07-15T01:11:51.589Z,1011.54
2018-07-15T01:12:51.600Z,1011.54
2018-07-15T01:13:51.564Z,1011.56
2018-07-15T01:14:51.557Z,1011.58
2018-07-15T01:15:51.543Z,1011.56
2018-07-15T01:16:51.533Z,1011.54
2018-07-15T01:17:51.545Z,1011.53
2018-07-15T01:18:51.514Z,1011.56
2018-07-15T01:19:51.499Z,1011.49
2018-07-15T01:20:51.488Z,1011.52
2018-07-15T01:21:51.480Z,1011.54
2018-07-15T01:22:51.490Z,1011.52
2018-07-15T01:23:51.458Z,1011.51
2018-07-15T01:24:51.444Z,1011.50
2018-07-15T01:25:51.434Z,1011.49
2018-07-15T01:26:51.425Z,1011.52
2018-07-15T01:27:51.434Z,1011.53
2018-07-15T01:28:51.400Z,1011.52
2018-07-15T01:29:51.392Z,1011.52
2018-07-15T01:30:51.379Z,1011.49
2018-07-15T01:31:51.368Z,1011.48
2018-07-15T01:32:51.380Z,1011.48
2018-07-15T01:33:51.346Z,1011.50
2018-07-15T01:34:51.338Z,1011.46
2018-07-15T01:35:51.324Z,1011.49
2018-07-15T01:36:51.313Z,1011.47
2018-07-15T01:37:51.325Z,1011.43
2018-07-15T01:38:51.296Z,1011.47
2018-07-15T01:39:51.282Z,1011.46
2018-07-15T01:40:51.269Z,1011.48
2018-07-15T01:41:51.258Z,1011.44
2018-07-15T01:42:51.271Z,1011.44
2018-07-15T01:43:51.235Z,1011.47
2018-07-15T01:44:51.225Z,1011.43
2018-07-15T01:45:51.216Z,1011.46
2018-07-15T01:46:51.204Z,1011.46
2018-07-15T01:47:51.218Z,1011.46
2018-07-15T01:48:51.182Z,1011.43
2018-07-15T01:49:51.173Z,1011.40
2018-07-15T01:50:51.159Z,1011.37
2018-07-15T01:51:51.149Z,1011.41
2018-07-15T01:52:51.166Z,1011.43
2018-07-15T01:53:51.126Z,1011.42
2018-07-15T01:54:51.117Z,1011.43
2018-07-15T01:55:51.106Z,1011.40
2018-07-15T01:56:51.093Z,1011.39
2018-07-15T01:57:51.107Z,1011.41
2018-07-15T01:58:51.071Z,1011.39
2018-07-15T01:59:51.061Z,1011.32
2018-07-15T02:00:51.049Z,1011.33
2018-07-15T02:01:51.040Z,1011.30
2018-07-15T02:02:51.049Z,1011.32
2018-07-15T02:03:51.017Z,1011.32
2018-07-15T02:04:51.005Z,1011.32
2018-07-15T02:05:50.994Z,1011.34
2018-07-15T02:06:50.986Z,1011.33
2018-07-15T02:07:50.996Z,1011.29
2018-07-15T02:08:50.961Z,1011.32
2018-07-15T02:09:50.950Z,1011.32
2018-07-15T02:10:50.939Z,1011.30
2018-07-15T02:11:50.933Z,1011.27
2018-07-15T02:12:50.940Z,1011.32
2018-07-15T02:13:50.907Z,1011.34
2018-07-15T02:14:50.896Z,1011.35
2018-07-15T02:15:50.888Z,1011.34
2018-07-15T02:16:50.877Z,1011.36
2018-07-15T02:17:50.890Z,1011.34
2018-07-15T02:18:50.853Z,1011.36
2018-07-15T02:19:50.844Z,1011.36
2018-07-15T02:20:50.830Z,1011.39
2018-07-15T02:21:50.819Z,1011.37
2018-07-15T02:22:50.831Z,1011.41
2018-07-15T02:23:50.797Z,1011.37
2018-07-15T02:24:50.787Z,1011.39
2018-07-15T02:25:50.777Z,1011.40
2018-07-15T02:26:50.764Z,1011.38
2018-07-15T02:27:50.786Z,1011.37
2018-07-15T02:28:50.743Z,1011.43
2018-07-15T02:29:50.732Z,1011.45
2018-07-15T02:30:50.720Z,1011.43
2018-07-15T02:31:50.709Z,1011.45
2018-07-15T02:32:50.724Z,1011.41
2018-07-15T02:33:50.690Z,1011.39
2018-07-15T02:34:50.681Z,1011.43
2018-07-15T02:35:50.666Z,1011.42
2018-07-15T02:36:50.782Z,1011.46
2018-07-15T02:37:50.668Z,1011.42
2018-07-15T02:38:50.634Z,1011.44
2018-07-15T02:39:50.624Z,1011.45
2018-07-15T02:40:50.614Z,1011.44
2018-07-15T02:41:50.600Z,1011.43
2018-07-15T02:42:50.618Z,1011.43
2018-07-15T02:43:50.582Z,1011.41
2018-07-15T02:44:50.568Z,1011.41
2018-07-15T02:45:50.556Z,1011.37
2018-07-15T02:46:50.556Z,1011.41
2018-07-15T02:47:50.537Z,1011.42
2018-07-15T02:48:50.546Z,1011.36
2018-07-15T02:49:50.513Z,1011.40
2018-07-15T02:50:50.500Z,1011.40
2018-07-15T02:51:50.493Z,1011.40
2018-07-15T02:52:50.482Z,1011.44
2018-07-15T02:53:50.492Z,1011.42
2018-07-15T02:54:50.458Z,1011.42
2018-07-15T02:55:50.447Z,1011.44
2018-07-15T02:56:50.436Z,1011.44
2018-07-15T02:57:50.427Z,1011.41
2018-07-15T02:58:50.437Z,1011.39
2018-07-15T02:59:50.404Z,1011.40
2018-07-15T03:00:50.394Z,1011.42
2018-07-15T03:01:50.380Z,1011.40
2018-07-15T03:02:50.373Z,1011.40
2018-07-15T03:03:50.382Z,1011.38
2018-07-15T03:04:50.348Z,1011.39
2018-07-15T03:05:50.337Z,1011.36
2018-07-15T03:06:50.327Z,1011.36
2018-07-15T03:07:50.316Z,1011.36
2018-07-15T03:08:50.328Z,1011.36
2018-07-15T03:09:50.295Z,1011.35
2018-07-15T03:10:50.287Z,1011.35
2018-07-15T03:11:50.271Z,1011.35
2018-07-15T03:12:50.261Z,1011.38
2018-07-15T03:13:50.273Z,1011.41
2018-07-15T03:14:50.241Z,1011.41
2018-07-15T03:15:50.227Z,1011.40
2018-07-15T03:16:50.216Z,1011.33
2018-07-15T03:17:50.207Z,1011.33
2018-07-15T03:18:50.219Z,1011.34
2018-07-15T03:19:50.185Z,1011.34
2018-07-15T03:20:50.172Z,1011.32
2018-07-15T03:21:50.163Z,1011.35
2018-07-15T03:22:50.152Z,1011.35
2018-07-15T03:23:50.162Z,1011.33
2018-07-15T03:24:50.136Z,1011.29
2018-07-15T03:25:50.122Z,1011.27
2018-07-15T03:26:50.106Z,1011.30
2018-07-15T03:27:50.097Z,1011.32
2018-07-15T03:28:50.110Z,1011.32
2018-07-15T03:29:50.073Z,1011.34
2018-07-15T03:30:50.064Z,1011.35
2018-07-15T03:31:50.052Z,1011.32
2018-07-15T03:32:50.048Z,1011.28
2018-07-15T03:33:50.052Z,1011.27
2018-07-15T03:34:50.018Z,1011.28
2018-07-15T03:35:50.009Z,1011.29
2018-07-15T03:36:49.997Z,1011.28
2018-07-15T03:37:49.984Z,1011.22
2018-07-15T03:38:49.997Z,1011.24
2018-07-15T03:39:49.998Z,1011.29
2018-07-15T03:40:49.952Z,1011.22
2018-07-15T03:41:49.942Z,1011.26
2018-07-15T03:42:49.938Z,1011.22
2018-07-15T03:43:49.943Z,1011.23
2018-07-15T03:44:49.909Z,1011.27
2018-07-15T03:45:49.899Z,1011.24
2018-07-15T03:46:49.892Z,1011.23
2018-07-15T03:47:49.875Z,1011.25
2018-07-15T03:48:49.888Z,1011.24
2018-07-15T03:49:49.854Z,1011.26
2018-07-15T03:50:49.843Z,1011.23
2018-07-15T03:51:49.834Z,1011.22
2018-07-15T03:52:49.822Z,1011.20
2018-07-15T03:53:49.851Z,1011.23
2018-07-15T03:54:49.800Z,1011.21
2018-07-15T03:55:49.788Z,1011.20
2018-07-15T03:56:49.778Z,1011.25
2018-07-15T03:57:49.764Z,1011.21
2018-07-15T03:58:49.781Z,1011.19
2018-07-15T03:59:49.743Z,1011.22
2018-07-15T04:00:49.777Z,1011.21
2018-07-15T04:01:49.721Z,1011.22
2018-07-15T04:02:49.711Z,1011.27
2018-07-15T04:03:49.725Z,1011.24
2018-07-15T04:04:49.688Z,1011.20
2018-07-15T04:05:49.677Z,1011.19
2018-07-15T04:06:49.671Z,1011.17
2018-07-15T04:07:49.656Z,1011.20
2018-07-15T04:08:49.686Z,1011.18
2018-07-15T04:09:49.683Z,1011.18
2018-07-15T04:10:49.623Z,1011.21
2018-07-15T04:11:49.615Z,1011.17
2018-07-15T04:12:49.602Z,1011.16
2018-07-15T04:13:49.617Z,1011.16
2018-07-15T04:14:49.578Z,1011.15
2018-07-15T04:15:49.570Z,1011.14
2018-07-15T04:16:49.558Z,1011.11
2018-07-15T04:17:49.551Z,1011.13
2018-07-15T04:18:49.658Z,1011.10
2018-07-15T04:19:49.525Z,1011.11
2018-07-15T04:20:49.515Z,1011.09
2018-07-15T04:21:49.504Z,1011.08
2018-07-15T04:22:49.491Z,1011.09
2018-07-15T04:23:49.504Z,1011.12
2018-07-15T04:24:49.469Z,1011.08
2018-07-15T04:25:49.459Z,1011.06
2018-07-15T04:26:49.447Z,1011.10
2018-07-15T04:27:49.437Z,1011.12
2018-07-15T04:28:49.427Z,1011.09
2018-07-15T04:29:49.438Z,1011.08
2018-07-15T04:30:49.405Z,1011.13
2018-07-15T04:31:49.392Z,1011.11
2018-07-15T04:32:49.387Z,1011.08
2018-07-15T04:33:49.395Z,1011.07
2018-07-15T04:34:49.359Z,1011.07
2018-07-15T04:35:49.347Z,1011.04
2018-07-15T04:36:49.340Z,1011.05
2018-07-15T04:37:49.340Z,1011.07
2018-07-15T04:38:49.319Z,1011.12
2018-07-15T04:39:49.328Z,1011.06
2018-07-15T04:40:49.296Z,1011.07
2018-07-15T04:41:49.282Z,1011.12
2018-07-15T04:42:49.271Z,1011.10
2018-07-15T04:43:49.289Z,1011.14
2018-07-15T04:44:49.272Z,1011.07
2018-07-15T04:45:49.238Z,1011.08
2018-07-15T04:46:49.227Z,1011.07
2018-07-15T04:47:49.218Z,1011.13
2018-07-15T04:48:49.209Z,1011.11
2018-07-15T04:49:49.223Z,1011.09
2018-07-15T04:50:49.183Z,1011.11
2018-07-15T04:51:49.173Z,1011.10
2018-07-15T04:52:49.165Z,1011.13
2018-07-15T04:53:49.150Z,1011.13
2018-07-15T04:54:49.163Z,1011.14
2018-07-15T04:55:49.133Z,1011.11
2018-07-15T04:56:49.117Z,1011.13
2018-07-15T04:57:49.108Z,1011.10
2018-07-15T04:58:49.096Z,1011.17
2018-07-15T04:59:49.112Z,1011.13
2018-07-15T05:00:49.073Z,1011.13
2018-07-15T05:01:49.062Z,1011.15
2018-07-15T05:02:49.053Z,1011.18
2018-07-15T05:03:49.041Z,1011.20
2018-07-15T05:04:49.055Z,1011.18
2018-07-15T05:05:49.018Z,1011.19
2018-07-15T05:06:49.011Z,1011.19
2018-07-15T05:07:48.997Z,1011.22
2018-07-15T05:08:48.985Z,1011.19
2018-07-15T05:09:49.000Z,1011.19
2018-07-15T05:10:48.964Z,1011.20
2018-07-15T05:11:48.953Z,1011.21
2018-07-15T05:12:48.942Z,1011.13
2018-07-15T05:13:48.931Z,1011.15
2018-07-15T05:14:48.944Z,1011.15
2018-07-15T05:15:48.911Z,1011.18
2018-07-15T05:16:48.898Z,1011.19
2018-07-15T05:17:48.887Z,1011.18
2018-07-15T05:18:48.876Z,1011.15
2018-07-15T05:19:48.889Z,1011.15
2018-07-15T05:20:48.854Z,1011.17
2018-07-15T05:21:48.844Z,1011.16
2018-07-15T05:22:48.832Z,1011.14
2018-07-15T05:23:48.822Z,1011.16
2018-07-15T05:24:48.845Z,1011.18
2018-07-15T05:25:48.799Z,1011.15
2018-07-15T05:26:48.791Z,1011.14
2018-07-15T05:27:48.778Z,1011.14
2018-07-15T05:28:48.766Z,1011.13
2018-07-15T05:29:48.781Z,1011.13
2018-07-15T05:30:48.746Z,1011.12
2018-07-15T05:31:48.733Z,1011.10
2018-07-15T05:32:48.727Z,1011.14
2018-07-15T05:33:48.712Z,1011.15
2018-07-15T05:34:48.759Z,1011.17
2018-07-15T05:35:48.689Z,1011.15
2018-07-15T05:36:48.680Z,1011.09
2018-07-15T05:37:48.667Z,1011.11
2018-07-15T05:38:48.657Z,1011.14
2018-07-15T05:39:48.667Z,1011.14
2018-07-15T05:40:48.635Z,1011.17
2018-07-15T05:41:48.626Z,1011.13
2018-07-15T05:42:48.613Z,1011.18
2018-07-15T05:43:48.603Z,1011.18
2018-07-15T05:44:48.616Z,1011.21
2018-07-15T05:45:48.580Z,1011.19
2018-07-15T05:46:48.569Z,1011.22
2018-07-15T05:47:48.559Z,1011.21
2018-07-15T05:48:48.547Z,1011.21
2018-07-15T05:49:48.559Z,1011.23
2018-07-15T05:50:48.526Z,1011.22
2018-07-15T05:51:48.562Z,1011.22
2018-07-15T05:52:48.503Z,1011.23
2018-07-15T05:53:48.492Z,1011.26
2018-07-15T05:54:48.507Z,1011.31
2018-07-15T05:55:48.471Z,1011.27
2018-07-15T05:56:48.460Z,1011.29
2018-07-15T05:57:48.449Z,1011.34
2018-07-15T05:58:48.438Z,1011.31
2018-07-15T05:59:48.450Z,1011.29
2018-07-15T06:00:48.419Z,1011.31
2018-07-15T06:01:48.405Z,1011.29
2018-07-15T06:02:48.393Z,1011.35
2018-07-15T06:03:48.383Z,1011.33
2018-07-15T06:04:48.395Z,1011.33
2018-07-15T06:05:48.360Z,1011.32
2018-07-15T06:06:48.351Z,1011.37
2018-07-15T06:07:48.344Z,1011.39
2018-07-15T06:08:48.328Z,1011.35
2018-07-15T06:09:48.341Z,1011.33
2018-07-15T06:10:48.314Z,1011.35
2018-07-15T06:11:48.295Z,1011.31
2018-07-15T06:12:48.285Z,1011.33
2018-07-15T06:13:48.273Z,1011.34
2018-07-15T06:14:48.264Z,1011.29
2018-07-15T06:15:48.275Z,1011.30
2018-07-15T06:16:48.240Z,1011.29
2018-07-15T06:17:48.229Z,1011.27
2018-07-15T06:18:48.219Z,1011.28
2018-07-15T06:19:48.215Z,1011.28
2018-07-15T06:20:48.219Z,1011.28
2018-07-15T06:21:48.186Z,1011.31
2018-07-15T06:22:48.198Z,1011.29
2018-07-15T06:23:48.165Z,1011.31
2018-07-15T06:24:48.156Z,1011.26
2018-07-15T06:25:48.164Z,1011.27
2018-07-15T06:26:48.130Z,1011.25
2018-07-15T06:27:48.121Z,1011.26
2018-07-15T06:28:48.108Z,1011.27
2018-07-15T06:29:48.099Z,1011.25
2018-07-15T06:30:48.108Z,1011.25
2018-07-15T06:31:48.131Z,1011.29
2018-07-15T06:32:48.064Z,1011.28
2018-07-15T06:33:48.053Z,1011.27
2018-07-15T06:34:48.043Z,1011.26
2018-07-15T06:35:48.055Z,1011.27
2018-07-15T06:36:48.022Z,1011.27
2018-07-15T06:37:48.009Z,1011.27
2018-07-15T06:38:47.998Z,1011.26
2018-07-15T06:39:47.989Z,1011.23
2018-07-15T06:40:47.999Z,1011.22
2018-07-15T06:41:47.965Z,1011.26
2018-07-15T06:42:47.955Z,1011.27
2018-07-15T06:43:47.944Z,1011.24
2018-07-15T06:44:47.932Z,1011.27
2018-07-15T06:45:47.947Z,1011.26
2018-07-15T06:46:47.910Z,1011.26
2018-07-15T06:47:47.900Z,1011.26
2018-07-15T06:48:47.888Z,1011.26
2018-07-15T06:49:47.877Z,1011.28
2018-07-15T06:50:47.890Z,1011.27
2018-07-15T06:51:47.855Z,1011.25
2018-07-15T06:52:47.844Z,1011.25
2018-07-15T06:53:47.865Z,1011.24
2018-07-15T06:54:47.822Z,1011.26
2018-07-15T06:55:47.885Z,1011.24
2018-07-15T06:56:47.800Z,1011.23
2018-07-15T06:57:47.788Z,1011.25
2018-07-15T06:58:47.779Z,1011.24
2018-07-15T06:59:47.767Z,1011.22
2018-07-15T07:00:47.779Z,1011.21
2018-07-15T07:01:47.746Z,1011.26
2018-07-15T07:02:47.733Z,1011.23
2018-07-15T07:03:47.724Z,1011.22
2018-07-15T07:04:47.711Z,1011.25
2018-07-15T07:05:47.724Z,1011.28
2018-07-15T07:06:47.692Z,1011.23
2018-07-15T07:07:47.694Z,1011.25
2018-07-15T07:08:47.670Z,1011.27
2018-07-15T07:09:47.657Z,1011.28
2018-07-15T07:10:47.669Z,1011.28
2018-07-15T07:11:47.643Z,1011.30
2018-07-15T07:12:47.626Z,1011.30
2018-07-15T07:13:47.613Z,1011.30
2018-07-15T07:14:47.604Z,1011.31
2018-07-15T07:15:47.615Z,1011.32
2018-07-15T07:16:47.581Z,1011.28
2018-07-15T07:17:47.570Z,1011.30
2018-07-15T07:18:47.559Z,1011.27
2018-07-15T07:19:47.548Z,1011.29
2018-07-15T07:20:47.561Z,1011.30
2018-07-15T07:21:47.528Z,1011.34
2018-07-15T07:22:47.517Z,1011.32
2018-07-15T07:23:47.506Z,1011.33
2018-07-15T07:24:47.493Z,1011.38
2018-07-15T07:25:47.506Z,1011.35
2018-07-15T07:26:47.471Z,1011.36
2018-07-15T07:27:47.461Z,1011.35
2018-07-15T07:28:47.463Z,1011.35
2018-07-15T07:29:47.438Z,1011.34
2018-07-15T07:30:47.451Z,1011.34
2018-07-15T07:31:47.416Z,1011.33
2018-07-15T07:32:47.405Z,1011.36
2018-07-15T07:33:47.395Z,1011.33
2018-07-15T07:34:47.383Z,1011.29
2018-07-15T07:35:47.395Z,1011.31
2018-07-15T07:36:47.360Z,1011.34
2018-07-15T07:37:47.350Z,1011.27
2018-07-15T07:38:47.353Z,1011.28
2018-07-15T07:39:47.332Z,1011.27
2018-07-15T07:40:47.341Z,1011.23
2018-07-15T07:41:47.309Z,1011.26
2018-07-15T07:42:47.295Z,1011.22
2018-07-15T07:43:47.285Z,1011.21
2018-07-15T07:44:47.277Z,1011.26
2018-07-15T07:45:47.286Z,1011.21
2018-07-15T07:46:47.260Z,1011.19
2018-07-15T07:47:47.242Z,1011.17
2018-07-15T07:48:47.229Z,1011.20
2018-07-15T07:49:47.219Z,1011.19
2018-07-15T07:50:47.210Z,1011.21
2018-07-15T07:51:47.220Z,1011.14
2018-07-15T07:52:47.185Z,1011.17
2018-07-15T07:53:47.175Z,1011.16
2018-07-15T07:54:47.164Z,1011.13
2018-07-15T07:55:47.155Z,1011.13
2018-07-15T07:56:47.167Z,1011.10
2018-07-15T07:57:47.132Z,1011.10
2018-07-15T07:58:47.120Z,1011.10
2018-07-15T07:59:47.110Z,1011.12
2018-07-15T08:00:47.101Z,1011.12
2018-07-15T08:01:47.110Z,1011.17
2018-07-15T08:02:47.076Z,1011.14
2018-07-15T08:03:47.066Z,1011.11
2018-07-15T08:04:47.054Z,1011.08
2018-07-15T08:05:47.046Z,1011.10
2018-07-15T08:06:47.057Z,1011.09
2018-07-15T08:07:47.027Z,1011.10
2018-07-15T08:08:47.067Z,1011.08
2018-07-15T08:09:47.000Z,1011.11
2018-07-15T08:10:46.990Z,1011.03
2018-07-15T08:11:47.001Z,1011.08
2018-07-15T08:12:46.967Z,1011.11
2018-07-15T08:13:46.956Z,1011.09
2018-07-15T08:14:46.947Z,1011.07
2018-07-15T08:15:46.933Z,1011.06
2018-07-15T08:16:46.948Z,1011.05
2018-07-15T08:17:46.917Z,1011.02
2018-07-15T08:18:46.901Z,1011.03
2018-07-15T08:19:46.890Z,1011.06
2018-07-15T08:20:46.878Z,1011.06
2018-07-15T08:21:46.891Z,1011.07
2018-07-15T08:22:46.857Z,1011.05
2018-07-15T08:23:46.849Z,1011.01
2018-07-15T08:24:46.839Z,1011.01
2018-07-15T08:25:46.827Z,1011.04
2018-07-15T08:26:46.836Z,1011.05
2018-07-15T08:27:46.802Z,1011.05
2018-07-15T08:28:46.791Z,1011.02
2018-07-15T08:29:46.781Z,1011.00
2018-07-15T08:30:46.770Z,1010.98
2018-07-15T08:31:46.782Z,1010.98
2018-07-15T08:32:46.749Z,1011.01
2018-07-15T08:33:46.736Z,1011.01
2018-07-15T08:34:46.730Z,1011.04
2018-07-15T08:35:46.714Z,1011.00
2018-07-15T08:36:46.730Z,1010.98
2018-07-15T08:37:46.693Z,1010.99
2018-07-15T08:38:46.681Z,1010.95
2018-07-15T08:39:46.671Z,1010.98
2018-07-15T08:40:46.799Z,1010.97
2018-07-15T08:41:46.677Z,1010.97
2018-07-15T08:42:46.638Z,1010.95
2018-07-15T08:43:46.627Z,1010.98
2018-07-15T08:44:46.617Z,1010.98
2018-07-15T08:45:46.605Z,1010.99
2018-07-15T08:46:46.618Z,1010.95
2018-07-15T08:47:46.585Z,1010.92
2018-07-15T08:48:46.573Z,1010.92
2018-07-15T08:49:46.565Z,1010.89
2018-07-15T08:50:46.553Z,1010.88
2018-07-15T08:51:46.564Z,1010.89
2018-07-15T08:52:46.534Z,1010.85
2018-07-15T08:53:46.518Z,1010.84
2018-07-15T08:54:46.561Z,1010.88
2018-07-15T08:55:46.496Z,1010.86
2018-07-15T08:56:46.509Z,1010.85
2018-07-15T08:57:46.474Z,1010.88
2018-07-15T08:58:46.463Z,1010.91
2018-07-15T08:59:46.453Z,1010.86
2018-07-15T09:00:46.441Z,1010.83
2018-07-15T09:01:46.457Z,1010.83
2018-07-15T09:02:46.419Z,1010.83
2018-07-15T09:03:46.407Z,1010.81
2018-07-15T09:04:46.398Z,1010.83
2018-07-15T09:05:46.386Z,1010.78
2018-07-15T09:06:46.398Z,1010.80
2018-07-15T09:07:46.364Z,1010.80
2018-07-15T09:08:46.355Z,1010.77
2018-07-15T09:09:46.343Z,1010.78
2018-07-15T09:10:46.332Z,1010.72
2018-07-15T09:11:46.346Z,1010.71
2018-07-15T09:12:46.392Z,1010.66
2018-07-15T09:13:46.300Z,1010.68
2018-07-15T09:14:46.287Z,1010.68
2018-07-15T09:15:46.279Z,1010.67
2018-07-15T09:16:46.289Z,1010.64
2018-07-15T09:17:46.256Z,1010.70
2018-07-15T09:18:46.246Z,1010.75
2018-07-15T09:19:46.233Z,1010.67
2018-07-15T09:20:46.223Z,1010.72
2018-07-15T09:21:46.240Z,1010.73
2018-07-15T09:22:46.201Z,1010.71
2018-07-15T09:23:46.188Z,1010.64
2018-07-15T09:24:46.178Z,1010.71
2018-07-15T09:25:46.168Z,1010.66
2018-07-15T09:26:46.182Z,1010.64
2018-07-15T09:27:46.205Z,1010.60
2018-07-15T09:28:46.134Z,1010.57
2018-07-15T09:29:46.124Z,1010.62
2018-07-15T09:30:46.114Z,1010.58
2018-07-15T09:31:46.125Z,1010.63
2018-07-15T09:32:46.092Z,1010.61
2018-07-15T09:33:46.080Z,1010.65
2018-07-15T09:34:46.068Z,1010.61
2018-07-15T09:35:46.059Z,1010.62
2018-07-15T09:36:46.048Z,1010.62
2018-07-15T09:37:46.060Z,1010.64
2018-07-15T09:38:46.025Z,1010.67
2018-07-15T09:39:46.014Z,1010.68
2018-07-15T09:40:46.007Z,1010.67
2018-07-15T09:41:45.993Z,1010.74
2018-07-15T09:42:46.004Z,1010.70
2018-07-15T09:43:45.970Z,1010.70
2018-07-15T09:44:45.960Z,1010.69
2018-07-15T09:45:45.948Z,1010.71
2018-07-15T09:46:45.941Z,1010.67
2018-07-15T09:47:45.951Z,1010.66
2018-07-15T09:48:45.915Z,1010.65
2018-07-15T09:49:45.904Z,1010.67
2018-07-15T09:50:45.893Z,1010.66
2018-07-15T09:51:45.884Z,1010.68
2018-07-15T09:52:45.896Z,1010.68
2018-07-15T09:53:45.861Z,1010.66
2018-07-15T09:54:45.857Z,1010.61
2018-07-15T09:55:45.839Z,1010.61
2018-07-15T09:56:45.828Z,1010.58
2018-07-15T09:57:45.840Z,1010.56
2018-07-15T09:58:45.805Z,1010.58
2018-07-15T09:59:45.797Z,1010.53
2018-07-15T10:00:45.784Z,1010.58
2018-07-15T10:01:45.772Z,1010.59
2018-07-15T10:02:45.785Z,1010.60
2018-07-15T10:03:45.750Z,1010.60
2018-07-15T10:04:45.806Z,1010.59
2018-07-15T10:05:45.728Z,1010.62
2018-07-15T10:06:45.717Z,1010.64
2018-07-15T10:07:45.730Z,1010.57
2018-07-15T10:08:45.696Z,1010.57
2018-07-15T10:09:45.686Z,1010.56
2018-07-15T10:10:45.674Z,1010.54
2018-07-15T10:11:45.663Z,1010.56
2018-07-15T10:12:45.675Z,1010.53
2018-07-15T10:13:45.640Z,1010.51
2018-07-15T10:14:45.628Z,1010.50
2018-07-15T10:15:45.619Z,1010.48
2018-07-15T10:16:45.606Z,1010.50
2018-07-15T10:17:45.619Z,1010.51
2018-07-15T10:18:45.585Z,1010.47
2018-07-15T10:19:45.573Z,1010.45
2018-07-15T10:20:45.563Z,1010.45
2018-07-15T10:21:45.553Z,1010.42
2018-07-15T10:22:45.564Z,1010.43
2018-07-15T10:23:45.530Z,1010.44
2018-07-15T10:24:45.517Z,1010.41
2018-07-15T10:25:45.508Z,1010.39
2018-07-15T10:26:45.628Z,1010.39
2018-07-15T10:27:45.507Z,1010.33
2018-07-15T10:28:45.476Z,1010.34
2018-07-15T10:29:45.463Z,1010.32
2018-07-15T10:30:45.451Z,1010.30
2018-07-15T10:31:45.441Z,1010.25
2018-07-15T10:32:45.455Z,1010.27
2018-07-15T10:33:45.418Z,1010.33
2018-07-15T10:34:45.409Z,1010.32
2018-07-15T10:35:45.398Z,1010.33
2018-07-15T10:36:45.386Z,1010.27
2018-07-15T10:37:45.397Z,1010.33
2018-07-15T10:38:45.364Z,1010.33
2018-07-15T10:39:45.355Z,1010.30
2018-07-15T10:40:45.341Z,1010.32
2018-07-15T10:41:45.330Z,1010.28
2018-07-15T10:42:45.342Z,1010.30
2018-07-15T10:43:45.311Z,1010.28
2018-07-15T10:44:45.296Z,1010.28
2018-07-15T10:45:45.290Z,1010.26
2018-07-15T10:46:45.280Z,1010.27
2018-07-15T10:47:45.287Z,1010.27
2018-07-15T10:48:45.255Z,1010.28
2018-07-15T10:49:45.240Z,1010.29
2018-07-15T10:50:45.230Z,1010.25
2018-07-15T10:51:45.218Z,1010.22
2018-07-15T10:52:45.250Z,1010.19
2018-07-15T10:53:45.196Z,1010.21
2018-07-15T10:54:45.186Z,1010.19
2018-07-15T10:55:45.191Z,1010.19
2018-07-15T10:56:45.163Z,1010.15
2018-07-15T10:57:45.175Z,1010.13
2018-07-15T10:58:45.141Z,1010.08
2018-07-15T10:59:45.130Z,1010.11
2018-07-15T11:00:45.118Z,1010.10
2018-07-15T11:01:45.112Z,1010.12
2018-07-15T11:02:45.104Z,1010.12
2018-07-15T11:03:45.111Z,1010.08
2018-07-15T11:04:45.078Z,1010.02
2018-07-15T11:05:45.065Z,1010.07
2018-07-15T11:06:45.053Z,1010.03
2018-07-15T11:07:45.046Z,1010.08
2018-07-15T11:08:45.054Z,1010.05
2018-07-15T11:09:45.026Z,1010.06
2018-07-15T11:10:45.008Z,1010.00
2018-07-15T11:11:44.998Z,1009.95
2018-07-15T11:12:44.987Z,1009.99
2018-07-15T11:13:44.997Z,1009.96
2018-07-15T11:14:44.985Z,1009.89
2018-07-15T11:15:44.956Z,1009.92
2018-07-15T11:16:44.942Z,1009.89
2018-07-15T11:17:44.932Z,1009.86
2018-07-15T11:18:44.943Z,1009.95
2018-07-15T11:19:44.909Z,1009.91
2018-07-15T11:20:44.897Z,1009.85
2018-07-15T11:21:44.886Z,1009.90
2018-07-15T11:22:44.876Z,1009.89
2018-07-15T11:23:44.888Z,1009.85
2018-07-15T11:24:44.856Z,1009.85
2018-07-15T11:25:44.842Z,1009.81
2018-07-15T11:26:44.831Z,1009.80
2018-07-15T11:27:44.820Z,1009.82
2018-07-15T11:28:44.833Z,1009.80
2018-07-15T11:29:44.800Z,1009.78
2018-07-15T11:30:44.830Z,1009.77
2018-07-15T11:31:44.777Z,1009.79
2018-07-15T11:32:44.766Z,1009.79
2018-07-15T11:33:44.778Z,1009.78
2018-07-15T11:34:44.744Z,1009.76
2018-07-15T11:35:44.733Z,1009.72
2018-07-15T11:36:44.722Z,1009.66
2018-07-15T11:37:44.711Z,1009.68
2018-07-15T11:38:44.737Z,1009.74
2018-07-15T11:39:44.690Z,1009.72
2018-07-15T11:40:44.678Z,1009.66
2018-07-15T11:41:44.668Z,1009.67
2018-07-15T11:42:44.657Z,1009.69
2018-07-15T11:43:44.646Z,1009.63
2018-07-15T11:44:44.658Z,1009.65
2018-07-15T11:45:44.624Z,1009.64
2018-07-15T11:46:44.613Z,1009.68
2018-07-15T11:47:44.602Z,1009.65
2018-07-15T11:48:44.591Z,1009.59
2018-07-15T11:49:44.609Z,1009.55
2018-07-15T11:50:44.574Z,1009.51
2018-07-15T11:51:44.557Z,1009.50
2018-07-15T11:52:44.547Z,1009.50
2018-07-15T11:53:44.536Z,1009.46
2018-07-15T11:54:44.548Z,1009.50
2018-07-15T11:55:44.514Z,1009.48
2018-07-15T11:56:44.503Z,1009.49
2018-07-15T11:57:44.492Z,1009.46
2018-07-15T11:58:44.481Z,1009.43
2018-07-15T11:59:44.495Z,1009.41
2018-07-15T12:00:44.459Z,1009.37
2018-07-15T12:01:44.541Z,1009.38
2018-07-15T12:02:44.437Z,1009.29
2018-07-15T12:03:44.426Z,1009.31
2018-07-15T12:04:44.438Z,1009.27
2018-07-15T12:05:44.403Z,1009.30